createdAt,value
2023-06-30T00:05:08.515Z,76.40
2023-06-30T00:07:44.301Z,76.50
2023-06-30T00:10:21.352Z,76.40
2023-06-30T00:12:55.625Z,76.50
2023-06-30T00:15:29.812Z,76.50
2023-06-30T00:18:04.420Z,76.50
2023-06-30T00:20:38.701Z,76.60
2023-06-30T00:23:14.511Z,76.80
2023-06-30T00:25:49.228Z,77.10
2023-06-30T00:28:23.694Z,77.20
2023-06-30T00:30:57.943Z,77.60
2023-06-30T00:33:32.954Z,77.40
2023-06-30T00:36:07.141Z,77.30
2023-06-30T00:38:41.471Z,77.50
2023-06-30T00:41:15.966Z,77.40
2023-06-30T00:43:50.393Z,77.20
2023-06-30T00:46:24.750Z,77.20
2023-06-30T00:48:59.492Z,77.50
2023-06-30T00:51:34.370Z,77.30
2023-06-30T00:54:09.912Z,77.10
2023-06-30T00:56:44.808Z,77.30
2023-06-30T00:59:20.414Z,77.40
2023-06-30T01:02:07.325Z,77.40
2023-06-30T01:04:48.932Z,77.30
2023-06-30T01:07:35.599Z,77.50
2023-06-30T01:10:18.165Z,77.50
2023-06-30T01:12:52.274Z,77.40
2023-06-30T01:15:25.556Z,77.70
2023-06-30T01:18:04.334Z,77.70
2023-06-30T01:20:41.268Z,78.10
2023-06-30T01:23:59.573Z,77.90
2023-06-30T01:26:35.557Z,78.30
2023-06-30T01:29:08.754Z,78.50
2023-06-30T01:31:45.027Z,78.50
2023-06-30T01:34:18.190Z,78.70
2023-06-30T01:36:51.234Z,78.10
2023-06-30T01:39:24.299Z,78.40
2023-06-30T01:41:57.965Z,78.60
2023-06-30T01:44:31.260Z,78.80
2023-06-30T01:47:04.973Z,78.90
2023-06-30T01:49:38.149Z,78.90
2023-06-30T01:52:11.248Z,79.10
2023-06-30T01:54:44.434Z,79.30
2023-06-30T01:57:17.585Z,79.40
2023-06-30T01:59:50.630Z,79.50
2023-06-30T02:02:24.078Z,79.70
2023-06-30T02:04:57.124Z,79.90
2023-06-30T02:07:30.342Z,79.70
2023-06-30T02:10:04.264Z,79.90
2023-06-30T02:12:37.709Z,79.70
2023-06-30T02:15:11.690Z,80.00
2023-06-30T02:17:45.075Z,80.10
2023-06-30T02:20:20.196Z,79.70
2023-06-30T02:22:53.433Z,79.80
2023-06-30T02:25:26.490Z,79.60
2023-06-30T02:27:59.500Z,79.50
2023-06-30T02:30:32.582Z,80.10
2023-06-30T02:33:06.342Z,79.90
2023-06-30T02:35:40.736Z,80.00
2023-06-30T02:38:13.761Z,80.10
2023-06-30T02:40:46.913Z,79.80
2023-06-30T02:43:19.889Z,80.00
2023-06-30T02:45:53.390Z,80.20
2023-06-30T02:48:26.504Z,80.10
2023-06-30T02:50:59.729Z,80.20
2023-06-30T02:53:32.828Z,80.50
2023-06-30T02:56:06.147Z,80.30
2023-06-30T02:58:43.748Z,80.30
2023-06-30T03:01:17.141Z,80.80
2023-06-30T03:03:50.810Z,80.80
2023-06-30T03:06:24.451Z,81.00
2023-06-30T03:08:57.718Z,80.90
2023-06-30T03:11:34.530Z,80.70
2023-06-30T03:14:07.625Z,80.90
2023-06-30T03:16:50.860Z,80.60
2023-06-30T03:19:23.996Z,80.70
2023-06-30T03:21:57.032Z,80.70
2023-06-30T03:24:30.554Z,80.60
2023-06-30T03:27:04.227Z,80.80
2023-06-30T03:29:37.361Z,80.70
2023-06-30T03:32:10.594Z,81.10
2023-06-30T03:34:44.683Z,80.90
2023-06-30T03:37:17.836Z,81.00
2023-06-30T03:39:51.175Z,80.80
2023-06-30T03:42:27.014Z,80.70
2023-06-30T03:45:01.201Z,81.10
2023-06-30T03:47:38.482Z,81.00
2023-06-30T03:50:15.500Z,81.00
2023-06-30T03:52:49.631Z,80.90
2023-06-30T03:55:24.807Z,81.30
2023-06-30T03:57:58.692Z,80.60
2023-06-30T04:00:32.569Z,80.80
2023-06-30T04:03:06.039Z,80.60
2023-06-30T04:05:39.195Z,80.80
2023-06-30T04:08:12.358Z,80.60
2023-06-30T04:10:46.230Z,80.50
2023-06-30T04:13:19.428Z,80.90
2023-06-30T04:15:52.473Z,80.90
2023-06-30T04:18:25.504Z,80.90
2023-06-30T04:20:59.186Z,81.20
2023-06-30T04:23:32.183Z,81.30
2023-06-30T04:26:06.518Z,81.50
2023-06-30T04:28:39.717Z,81.50
2023-06-30T04:31:12.755Z,81.50
2023-06-30T04:33:45.822Z,81.50
2023-06-30T04:36:21.643Z,81.70
2023-06-30T04:38:54.783Z,81.80
2023-06-30T04:41:28.105Z,81.70
2023-06-30T04:44:01.368Z,81.50
2023-06-30T04:46:34.703Z,81.90
2023-06-30T04:49:07.860Z,81.70
2023-06-30T04:51:40.985Z,81.40
2023-06-30T04:54:14.068Z,81.90
2023-06-30T04:56:47.186Z,81.80
2023-06-30T04:59:21.788Z,82.00
2023-06-30T05:01:55.032Z,81.80
2023-06-30T05:04:28.504Z,82.00
2023-06-30T05:07:03.799Z,82.10
2023-06-30T05:09:36.878Z,82.10
2023-06-30T05:12:10.232Z,82.50
2023-06-30T05:14:43.279Z,82.70
2023-06-30T05:17:16.493Z,82.60
2023-06-30T05:19:50.079Z,82.70
2023-06-30T05:22:23.155Z,82.30
2023-06-30T05:24:56.176Z,82.70
2023-06-30T05:27:29.265Z,82.20
2023-06-30T05:30:02.271Z,82.40
2023-06-30T05:32:36.283Z,82.30
2023-06-30T05:35:18.715Z,82.20
2023-06-30T05:37:51.787Z,82.40
2023-06-30T05:40:24.855Z,81.80
2023-06-30T05:42:58.806Z,82.00
2023-06-30T05:45:31.878Z,82.20
2023-06-30T05:48:05.640Z,81.80
2023-06-30T05:50:40.263Z,81.70
2023-06-30T05:53:14.594Z,81.90
2023-06-30T05:55:47.777Z,81.70
2023-06-30T05:58:20.912Z,81.60
2023-06-30T06:00:54.233Z,81.20
2023-06-30T06:03:31.755Z,81.30
2023-06-30T06:06:05.178Z,81.30
2023-06-30T06:08:47.829Z,81.50
2023-06-30T06:11:20.947Z,81.70
2023-06-30T06:13:53.947Z,81.90
2023-06-30T06:16:27.298Z,81.70
2023-06-30T06:19:00.499Z,82.20
2023-06-30T06:21:36.356Z,81.90
2023-06-30T06:24:09.457Z,81.80
2023-06-30T06:26:43.004Z,80.20
2023-06-30T06:29:20.258Z,80.60
2023-06-30T06:31:54.289Z,80.30
2023-06-30T06:34:27.316Z,80.30
2023-06-30T06:37:04.175Z,80.20
2023-06-30T06:39:37.205Z,79.80
2023-06-30T06:42:10.714Z,79.70
2023-06-30T06:44:43.799Z,79.60
2023-06-30T06:48:13.115Z,80.10
2023-06-30T06:50:46.327Z,79.70
2023-06-30T06:53:25.760Z,79.60
2023-06-30T06:55:59.424Z,79.70
2023-06-30T06:58:36.536Z,79.50
2023-06-30T07:01:09.706Z,79.60
2023-06-30T07:03:42.786Z,80.20
2023-06-30T07:06:17.452Z,80.30
2023-06-30T07:08:50.425Z,79.50
2023-06-30T07:11:23.653Z,80.00
2023-06-30T07:13:56.711Z,80.20
2023-06-30T07:16:29.732Z,80.00
2023-06-30T07:19:04.874Z,80.10
2023-06-30T07:21:37.771Z,80.00
2023-06-30T07:24:10.789Z,80.30
2023-06-30T07:26:43.861Z,80.20
2023-06-30T07:29:16.918Z,80.50
2023-06-30T07:31:50.011Z,80.50
2023-06-30T07:34:24.726Z,80.90
2023-06-30T07:36:57.857Z,81.00
2023-06-30T07:39:30.926Z,81.40
2023-06-30T07:42:04.212Z,81.40
2023-06-30T07:44:38.686Z,81.50
2023-06-30T07:47:12.088Z,81.50
2023-06-30T07:49:45.188Z,81.30
2023-06-30T07:52:18.191Z,81.10
2023-06-30T07:54:54.368Z,81.20
2023-06-30T07:57:28.499Z,81.10
2023-06-30T08:00:01.627Z,80.80
2023-06-30T08:02:46.450Z,79.80
2023-06-30T08:05:19.635Z,79.70
2023-06-30T08:07:52.805Z,79.60
2023-06-30T08:10:26.225Z,79.50
2023-06-30T08:12:59.256Z,78.80
2023-06-30T08:15:32.372Z,79.40
2023-06-30T08:18:10.838Z,79.60
2023-06-30T08:20:44.269Z,79.70
2023-06-30T08:23:17.488Z,79.80
2023-06-30T08:25:51.103Z,80.20
2023-06-30T08:28:24.445Z,80.60
2023-06-30T08:30:57.592Z,80.50
2023-06-30T08:36:10.501Z,80.20
2023-06-30T08:38:43.549Z,79.40
2023-06-30T08:41:18.087Z,79.80
2023-06-30T08:43:52.543Z,79.80
2023-06-30T08:46:28.456Z,78.80
2023-06-30T08:49:02.932Z,78.50
2023-06-30T08:51:36.182Z,78.60
2023-06-30T08:54:10.949Z,79.00
2023-06-30T08:56:44.117Z,78.70
2023-06-30T08:59:17.228Z,78.60
2023-06-30T09:01:51.229Z,77.60
2023-06-30T09:04:25.419Z,77.80
2023-06-30T09:07:01.338Z,78.50
2023-06-30T09:09:44.221Z,78.10
2023-06-30T09:12:19.255Z,78.30
2023-06-30T09:14:53.975Z,77.70
2023-06-30T09:17:27.617Z,77.20
2023-06-30T09:20:00.701Z,78.00
2023-06-30T09:22:51.659Z,77.80
2023-06-30T09:25:28.415Z,77.50
2023-06-30T09:28:03.280Z,77.30
2023-06-30T09:30:38.675Z,77.80
2023-06-30T09:33:14.938Z,77.20
2023-06-30T09:35:50.141Z,77.30
2023-06-30T09:38:23.430Z,77.00
2023-06-30T09:40:56.870Z,76.80
2023-06-30T09:43:29.892Z,77.00
2023-06-30T09:46:04.548Z,77.20
2023-06-30T09:48:40.857Z,77.20
2023-06-30T09:51:20.309Z,77.60
2023-06-30T09:53:55.823Z,76.90
2023-06-30T09:56:29.924Z,77.10
2023-06-30T09:59:04.200Z,77.00
2023-06-30T10:01:37.248Z,76.70
2023-06-30T10:04:10.468Z,77.10
2023-06-30T10:06:43.589Z,76.90
2023-06-30T10:09:18.025Z,77.30
2023-06-30T10:11:55.972Z,77.10
2023-06-30T10:14:34.300Z,77.00
2023-06-30T10:17:09.330Z,75.40
2023-06-30T10:19:43.423Z,74.60
2023-06-30T10:22:16.941Z,75.60
2023-06-30T10:24:51.906Z,75.30
2023-06-30T10:27:26.202Z,75.60
2023-06-30T10:29:59.730Z,76.70
2023-06-30T10:32:33.072Z,77.40
2023-06-30T10:35:07.897Z,77.70
2023-06-30T10:37:41.415Z,77.80
2023-06-30T10:40:28.564Z,79.80
2023-06-30T10:43:01.714Z,80.60
2023-06-30T10:46:10.626Z,78.90
2023-06-30T10:48:45.934Z,77.30
2023-06-30T10:51:19.054Z,76.10
2023-06-30T10:53:52.365Z,75.30
2023-06-30T10:56:26.918Z,74.60
2023-06-30T10:59:01.194Z,73.40
2023-06-30T11:01:38.115Z,73.20
2023-06-30T11:04:11.642Z,72.40
2023-06-30T11:06:49.036Z,72.40
2023-06-30T11:09:22.850Z,71.10
2023-06-30T11:11:56.378Z,71.40
2023-06-30T11:14:34.348Z,71.50
2023-06-30T11:17:09.023Z,71.30
2023-06-30T11:19:42.985Z,71.40
2023-06-30T11:22:32.531Z,71.50
2023-06-30T11:25:12.436Z,69.90
2023-06-30T11:27:48.236Z,69.70
2023-06-30T11:30:22.868Z,71.00
2023-06-30T11:33:00.147Z,71.10
2023-06-30T11:35:42.813Z,71.70
2023-06-30T11:38:16.627Z,70.70
2023-06-30T11:40:53.576Z,70.70
2023-06-30T11:43:27.571Z,69.10
2023-06-30T11:46:03.251Z,69.20
2023-06-30T11:48:40.918Z,68.80
2023-06-30T11:51:15.133Z,67.10
2023-06-30T11:53:52.140Z,66.30
2023-06-30T11:56:27.970Z,65.20
2023-06-30T11:59:04.018Z,65.20
2023-06-30T12:01:37.842Z,66.00
2023-06-30T12:04:11.381Z,64.90
2023-06-30T12:08:32.879Z,66.00
2023-06-30T12:11:36.820Z,63.80
2023-06-30T12:14:16.641Z,65.30
2023-06-30T12:16:51.366Z,64.50
2023-06-30T12:19:29.194Z,64.50
2023-06-30T12:22:04.686Z,65.30
2023-06-30T12:24:39.694Z,63.90
2023-06-30T12:27:14.548Z,64.10
2023-06-30T12:29:48.768Z,64.60
2023-06-30T12:32:22.353Z,63.80
2023-06-30T12:35:07.185Z,65.00
2023-06-30T12:37:45.019Z,65.70
2023-06-30T12:40:18.622Z,66.00
2023-06-30T12:42:54.913Z,66.00
2023-06-30T12:45:28.500Z,65.20
2023-06-30T12:48:02.994Z,65.70
2023-06-30T12:50:36.971Z,65.00
2023-06-30T12:53:10.088Z,64.00
2023-06-30T12:55:43.403Z,64.10
2023-06-30T12:58:17.481Z,64.20
2023-06-30T13:00:51.407Z,61.10
2023-06-30T13:03:24.834Z,62.60
2023-06-30T13:05:58.496Z,61.60
2023-06-30T13:08:35.603Z,60.60
2023-06-30T13:11:08.976Z,61.80
2023-06-30T13:13:42.958Z,62.20
2023-06-30T13:16:17.167Z,61.50
2023-06-30T13:18:50.675Z,61.20
2023-06-30T13:21:23.783Z,61.20
2023-06-30T13:23:57.429Z,61.40
2023-06-30T13:26:30.571Z,58.90
2023-06-30T13:29:06.201Z,59.20
2023-06-30T13:31:39.517Z,58.80
2023-06-30T13:34:13.422Z,58.10
2023-06-30T13:36:47.276Z,58.70
2023-06-30T13:39:20.545Z,59.30
2023-06-30T13:41:55.030Z,58.90
2023-06-30T13:44:29.021Z,58.30
2023-06-30T13:47:02.815Z,58.00
2023-06-30T13:49:36.254Z,57.10
2023-06-30T13:52:09.455Z,57.60
2023-06-30T13:54:43.634Z,57.40
2023-06-30T13:57:19.743Z,57.70
2023-06-30T13:59:54.324Z,57.10
2023-06-30T14:02:28.113Z,56.80
2023-06-30T14:05:03.604Z,56.60
2023-06-30T14:07:37.365Z,57.10
2023-06-30T14:10:11.052Z,56.90
2023-06-30T14:12:46.098Z,55.60
2023-06-30T14:15:22.060Z,55.20
2023-06-30T14:17:55.681Z,56.10
2023-06-30T14:20:30.793Z,56.10
2023-06-30T14:23:04.796Z,55.70
2023-06-30T14:25:38.930Z,56.00
2023-06-30T14:28:12.664Z,55.80
2023-06-30T14:30:46.853Z,55.50
2023-06-30T14:33:20.423Z,55.50
2023-06-30T14:35:53.556Z,55.70
2023-06-30T14:38:26.922Z,56.10
2023-06-30T14:41:00.538Z,57.80
2023-06-30T14:43:35.621Z,58.00
2023-06-30T14:46:09.091Z,58.10
2023-06-30T14:48:42.461Z,57.80
2023-06-30T14:51:15.689Z,58.10
2023-06-30T14:53:49.148Z,58.80
2023-06-30T14:56:22.461Z,58.70
2023-06-30T14:58:56.975Z,58.60
2023-06-30T15:01:33.572Z,59.10
2023-06-30T15:04:06.796Z,59.50
2023-06-30T15:06:39.947Z,59.80
2023-06-30T15:09:13.245Z,59.70
2023-06-30T15:11:46.708Z,58.90
2023-06-30T15:14:19.896Z,58.80
2023-06-30T15:16:53.108Z,58.80
2023-06-30T15:19:26.679Z,58.10
2023-06-30T15:22:00.029Z,58.00
2023-06-30T15:24:36.638Z,57.80
2023-06-30T15:27:10.966Z,57.80
2023-06-30T15:29:44.451Z,58.60
2023-06-30T15:32:17.584Z,59.00
2023-06-30T15:34:51.252Z,59.20
2023-06-30T15:37:24.551Z,59.90
2023-06-30T15:39:57.673Z,59.60
2023-06-30T15:42:33.973Z,60.00
2023-06-30T15:45:08.862Z,61.70
2023-06-30T15:47:42.266Z,62.50
2023-06-30T15:50:15.500Z,64.00
2023-06-30T15:52:48.917Z,64.00
2023-06-30T15:55:23.046Z,65.30
2023-06-30T15:57:58.691Z,67.70
2023-06-30T16:00:32.068Z,68.40
2023-06-30T16:03:05.911Z,70.50
2023-06-30T16:05:39.385Z,70.70
2023-06-30T16:08:13.543Z,70.50
2023-06-30T16:10:46.906Z,70.90
2023-06-30T16:13:20.975Z,70.30
2023-06-30T16:15:54.388Z,70.20
2023-06-30T16:18:27.680Z,70.40
2023-06-30T16:21:00.742Z,70.90
2023-06-30T16:23:35.535Z,71.30
2023-06-30T16:26:09.007Z,71.30
2023-06-30T16:28:42.187Z,71.40
2023-06-30T16:31:15.317Z,71.20
2023-06-30T16:33:48.620Z,71.60
2023-06-30T16:36:22.984Z,71.50
2023-06-30T16:38:57.784Z,71.90
2023-06-30T16:41:30.920Z,71.70
2023-06-30T16:44:04.660Z,72.10
2023-06-30T16:46:41.424Z,72.10
2023-06-30T16:49:14.620Z,72.50
2023-06-30T16:51:48.119Z,72.80
2023-06-30T16:54:21.303Z,72.80
2023-06-30T16:56:54.647Z,73.20
2023-06-30T16:59:27.796Z,73.30
2023-06-30T17:02:00.938Z,73.30
2023-06-30T17:04:38.618Z,73.00
2023-06-30T17:07:12.462Z,72.60
2023-06-30T17:09:46.544Z,72.60
2023-06-30T17:12:19.891Z,72.60
2023-06-30T17:14:53.348Z,72.80
2023-06-30T17:17:26.588Z,73.20
2023-06-30T17:19:59.736Z,72.90
2023-06-30T17:22:33.095Z,72.60
2023-06-30T17:25:07.348Z,73.00
2023-06-30T17:27:42.123Z,72.50
2023-06-30T17:30:15.718Z,72.70
2023-06-30T17:32:48.751Z,73.20
2023-06-30T17:35:21.927Z,72.20
2023-06-30T17:37:55.115Z,72.40
2023-06-30T17:40:28.401Z,72.10
2023-06-30T17:43:03.310Z,71.30
2023-06-30T17:45:36.490Z,70.60
2023-06-30T17:48:11.156Z,70.00
2023-06-30T17:50:44.544Z,70.30
2023-06-30T17:53:17.892Z,71.30
2023-06-30T17:55:53.155Z,73.10
2023-06-30T17:58:26.588Z,74.30
2023-06-30T18:01:00.118Z,76.00
2023-06-30T18:03:35.669Z,76.40
2023-06-30T18:06:08.886Z,78.20
2023-06-30T18:08:41.888Z,79.20
2023-06-30T18:11:15.940Z,79.30
2023-06-30T18:13:49.588Z,79.40
2023-06-30T18:16:23.187Z,79.80
2023-06-30T18:18:56.444Z,80.40
2023-06-30T18:21:29.630Z,80.40
2023-06-30T18:24:06.296Z,81.00
2023-06-30T18:26:39.857Z,81.20
2023-06-30T18:29:13.493Z,81.30
2023-06-30T18:31:46.774Z,81.70
2023-06-30T18:34:21.564Z,82.00
2023-06-30T18:36:54.907Z,82.00
2023-06-30T18:39:28.358Z,82.40
2023-06-30T18:42:01.957Z,83.00
2023-06-30T18:44:38.003Z,83.00
2023-06-30T18:47:13.453Z,82.30
2023-06-30T18:49:46.896Z,82.70
2023-06-30T18:52:20.563Z,82.90
2023-06-30T18:54:54.258Z,82.70
2023-06-30T18:57:28.447Z,82.80
2023-06-30T19:00:03.613Z,82.70
2023-06-30T19:02:37.503Z,82.70
2023-06-30T19:05:12.638Z,82.90
2023-06-30T19:07:47.804Z,82.80
2023-06-30T19:10:20.981Z,83.00
2023-06-30T19:12:54.010Z,83.30
2023-06-30T19:15:27.436Z,83.10
2023-06-30T19:18:00.804Z,83.60
2023-06-30T19:20:35.312Z,83.10
2023-06-30T19:23:10.429Z,83.20
2023-06-30T19:25:47.288Z,83.30
2023-06-30T19:28:21.463Z,83.30
2023-06-30T19:30:54.656Z,83.40
2023-06-30T19:33:31.381Z,83.50
2023-06-30T19:36:05.212Z,83.20
2023-06-30T19:38:38.365Z,83.50
2023-06-30T19:41:13.576Z,83.40
2023-06-30T19:43:46.799Z,83.40
2023-06-30T19:46:19.969Z,83.60
2023-06-30T19:48:53.345Z,83.80
2023-06-30T19:51:26.424Z,83.80
2023-06-30T19:54:00.093Z,83.80
2023-06-30T19:56:36.623Z,83.90
2023-06-30T19:59:09.707Z,83.90
2023-06-30T20:01:44.497Z,83.80
2023-06-30T20:04:17.664Z,84.00
2023-06-30T20:06:50.840Z,84.00
2023-06-30T20:09:23.862Z,84.00
2023-06-30T20:11:58.885Z,84.30
2023-06-30T20:14:32.247Z,83.90
2023-06-30T20:17:09.075Z,84.00
2023-06-30T20:19:44.971Z,83.80
2023-06-30T20:22:18.166Z,84.20
2023-06-30T20:24:51.594Z,83.90
2023-06-30T20:27:25.117Z,84.30
2023-06-30T20:29:58.319Z,84.10
2023-06-30T20:32:31.815Z,83.80
2023-06-30T20:35:05.060Z,83.80
2023-06-30T20:37:38.468Z,83.70
2023-06-30T20:40:11.955Z,83.60
2023-06-30T20:42:45.102Z,83.30
2023-06-30T20:45:18.635Z,83.60
2023-06-30T20:47:53.668Z,83.70
2023-06-30T20:50:26.971Z,83.70
2023-06-30T20:53:00.761Z,83.80
2023-06-30T20:55:35.581Z,84.10
2023-06-30T20:58:09.437Z,83.90
2023-06-30T21:00:42.623Z,84.10
2023-06-30T21:03:16.508Z,84.50
2023-06-30T21:05:49.766Z,84.30
2023-06-30T21:08:25.779Z,84.60
2023-06-30T21:10:59.157Z,84.50
2023-06-30T21:13:32.596Z,84.30
2023-06-30T21:16:06.364Z,84.20
2023-06-30T21:18:40.787Z,84.60
2023-06-30T21:21:15.073Z,84.70
2023-06-30T21:23:48.117Z,84.40
2023-06-30T21:26:21.705Z,84.40
2023-06-30T21:28:54.959Z,84.40
2023-06-30T21:31:28.087Z,84.40
2023-06-30T21:34:03.009Z,84.30
2023-06-30T21:36:39.330Z,84.20
2023-06-30T21:39:13.270Z,84.50
2023-06-30T21:41:46.376Z,84.40
2023-06-30T21:44:21.418Z,84.40
2023-06-30T21:46:54.909Z,84.60
2023-06-30T21:49:28.235Z,84.50
2023-06-30T21:52:02.631Z,84.50
2023-06-30T21:54:47.065Z,84.40
2023-06-30T21:57:21.334Z,84.50
2023-06-30T21:59:54.414Z,84.40
2023-06-30T22:02:27.848Z,84.40
2023-06-30T22:05:02.740Z,84.30
2023-06-30T22:07:36.240Z,84.10
2023-06-30T22:10:11.555Z,84.20
2023-06-30T22:12:44.748Z,84.40
2023-06-30T22:15:18.358Z,84.40
2023-06-30T22:17:52.623Z,84.70
2023-06-30T22:20:25.901Z,84.60
2023-06-30T22:22:58.995Z,84.60
2023-06-30T22:25:32.148Z,84.70
2023-06-30T22:28:06.171Z,84.80
2023-06-30T22:30:39.358Z,84.60
2023-06-30T22:33:12.748Z,84.90
2023-06-30T22:35:46.168Z,84.50
2023-06-30T22:38:19.472Z,84.70
2023-06-30T22:40:52.496Z,84.70
2023-06-30T22:43:25.636Z,84.40
2023-06-30T22:45:58.813Z,84.80
2023-06-30T22:48:31.978Z,84.30
2023-06-30T22:51:05.429Z,84.60
2023-06-30T22:53:38.538Z,84.30
2023-06-30T22:56:11.746Z,84.60
2023-06-30T22:58:45.281Z,84.60
2023-06-30T23:01:19.258Z,84.80
2023-06-30T23:03:52.667Z,85.70
2023-06-30T23:06:26.104Z,84.60
2023-06-30T23:08:59.427Z,86.20
2023-06-30T23:11:32.606Z,86.30
2023-06-30T23:14:06.395Z,86.10
2023-06-30T23:16:39.552Z,86.40
2023-06-30T23:19:12.913Z,86.40
2023-06-30T23:21:46.148Z,85.00
2023-06-30T23:24:21.115Z,85.20
2023-06-30T23:26:54.288Z,85.40
2023-06-30T23:29:29.909Z,86.70
2023-06-30T23:32:07.907Z,87.00
2023-06-30T23:34:41.790Z,86.90
2023-06-30T23:37:18.624Z,85.50
2023-06-30T23:39:53.133Z,87.00
2023-06-30T23:42:26.820Z,87.20
2023-06-30T23:45:00.073Z,87.00
2023-06-30T23:47:35.483Z,85.80
2023-06-30T23:50:09.626Z,85.80
2023-06-30T23:52:42.956Z,85.70
2023-06-30T23:55:16.030Z,85.70
2023-06-30T23:57:50.413Z,85.60
